^^
Your Local Weather - Clay, NY Station Historical Data
Daily Summary for July 23, 2017 Units:  English    Metric   Both
« Previous Day
Next Day »
Daily Weekly Monthly Yearly Custom
  High: Low: Average:
Temperature: 75.4 °F 61.6 °F 69.6 °F
Dew Point: 66.5 °F 59.6 °F 63.8 °F
Humidity: 94% 69% 82%
Wind Speed: 3.0mph 0.0mph 1.1mph
Wind Gust: 8.0mph - -
Wind- - East
Pressure: 29.77 in 29.69 in -
Precipitation: 0.00 in    
Historical Graphs
 
 
Tabular Data for July 23, 2017
Time Temperature Dew Point Pressure Wind Wind Speed Wind Gust Humidity Rainfall Rate (Hourly) solar
00:05 64.0 °F 61.3 °F 29.75 in Calm     91% 0.00 in 0 W/m2
00:12 63.9 °F 61.5 °F 29.75 in Calm     92% 0.00 in 0 W/m2
00:18 63.9 °F 61.5 °F 29.75 in Calm     92% 0.00 in 0 W/m2
00:23 64.0 °F 61.6 °F 29.75 in Calm     92% 0.00 in 0 W/m2
00:29 64.1 °F 61.7 °F 29.75 in Calm     92% 0.00 in 0 W/m2
00:35 64.1 °F 61.7 °F 29.75 in Calm     92% 0.00 in 0 W/m2
00:41 64.2 °F 61.8 °F 29.74 in Calm     92% 0.00 in 0 W/m2
00:48 64.2 °F 61.8 °F 29.74 in Calm     92% 0.00 in 0 W/m2
00:53 64.2 °F 61.8 °F 29.75 in Calm     92% 0.00 in 0 W/m2
01:00 64.2 °F 62.1 °F 29.74 in Calm     93% 0.00 in 0 W/m2
01:06 64.1 °F 62.0 °F 29.74 in Calm     93% 0.00 in 0 W/m2
01:12 64.1 °F 62.0 °F 29.74 in Calm     93% 0.00 in 0 W/m2
01:18 64.0 °F 61.6 °F 29.74 in Calm     92% 0.00 in 0 W/m2
01:24 63.9 °F 61.5 °F 29.74 in Calm     92% 0.00 in 0 W/m2
01:30 63.8 °F 61.4 °F 29.74 in Calm     92% 0.00 in 0 W/m2
01:36 63.6 °F 61.5 °F 29.74 in Calm     93% 0.00 in 0 W/m2
01:42 63.4 °F 61.3 °F 29.74 in Calm     93% 0.00 in 0 W/m2
01:48 63.2 °F 60.8 °F 29.74 in Calm     92% 0.00 in 0 W/m2
01:54 63.0 °F 60.6 °F 29.73 in Calm     92% 0.00 in 0 W/m2
02:00 62.9 °F 60.8 °F 29.73 in Calm     93% 0.00 in 0 W/m2
02:06 62.7 °F 60.3 °F 29.73 in Calm     92% 0.00 in 0 W/m2
02:12 62.5 °F 60.4 °F 29.73 in Calm     93% 0.00 in 0 W/m2
02:18 62.5 °F 60.4 °F 29.73 in Calm     93% 0.00 in 0 W/m2
02:24 62.5 °F 60.4 °F 29.73 in Calm     93% 0.00 in 0 W/m2
02:30 62.6 °F 60.5 °F 29.73 in Calm     93% 0.00 in 0 W/m2
02:36 62.7 °F 60.6 °F 29.72 in Calm     93% 0.00 in 0 W/m2
02:42 62.7 °F 60.6 °F 29.73 in Calm     93% 0.00 in 0 W/m2
02:48 62.6 °F 60.5 °F 29.73 in Calm     93% 0.00 in 0 W/m2
02:54 62.5 °F 60.4 °F 29.73 in Calm     93% 0.00 in 0 W/m2
03:00 62.3 °F 60.2 °F 29.72 in Calm     93% 0.00 in 0 W/m2
03:06 62.2 °F 60.2 °F 29.71 in Calm     93% 0.00 in 0 W/m2
03:12 62.0 °F 60.0 °F 29.72 in Calm     93% 0.00 in 0 W/m2
03:18 61.9 °F 59.9 °F 29.72 in Calm     93% 0.00 in 0 W/m2
03:24 61.8 °F 59.8 °F 29.72 in Calm     93% 0.00 in 0 W/m2
03:30 61.6 °F 59.6 °F 29.73 in Calm     93% 0.00 in 0 W/m2
03:36 61.6 °F 59.6 °F 29.73 in Calm     93% 0.00 in 0 W/m2
03:42 61.7 °F 59.7 °F 29.72 in Calm     93% 0.00 in 0 W/m2
03:48 61.8 °F 59.8 °F 29.73 in Calm     93% 0.00 in 0 W/m2
03:54 61.9 °F 60.2 °F 29.73 in NE 1.0 mph 1.0 mph 94% 0.00 in 0 W/m2
04:00 62.3 °F 60.6 °F 29.73 in NE 1.0 mph 1.0 mph 94% 0.00 in 0 W/m2
04:06 62.4 °F 60.7 °F 29.73 in Calm   1.0 mph 94% 0.00 in 0 W/m2
04:12 62.5 °F 60.7 °F 29.73 in Calm     94% 0.00 in 0 W/m2
04:18 62.6 °F 60.8 °F 29.73 in Calm     94% 0.00 in 0 W/m2
04:24 62.6 °F 60.8 °F 29.73 in Calm     94% 0.00 in 0 W/m2
04:30 62.8 °F 61.0 °F 29.73 in Calm     94% 0.00 in 0 W/m2
04:36 62.9 °F 61.1 °F 29.73 in Calm     94% 0.00 in 0 W/m2
04:42 63.1 °F 61.3 °F 29.73 in Calm     94% 0.00 in 0 W/m2
04:48 63.2 °F 61.4 °F 29.73 in Calm     94% 0.00 in 0 W/m2
04:54 63.2 °F 61.4 °F 29.73 in Calm     94% 0.00 in 0 W/m2
05:00 63.2 °F 61.4 °F 29.73 in Calm     94% 0.00 in 0 W/m2
05:06 63.2 °F 61.4 °F 29.73 in Calm     94% 0.00 in 0 W/m2
05:12 63.3 °F 61.5 °F 29.74 in Calm     94% 0.00 in 0 W/m2
05:18 63.6 °F 61.8 °F 29.74 in Calm     94% 0.00 in 0 W/m2
05:24 63.6 °F 61.8 °F 29.74 in Calm     94% 0.00 in 0 W/m2
05:30 63.4 °F 61.6 °F 29.74 in Calm     94% 0.00 in 0 W/m2
05:36 63.4 °F 61.6 °F 29.74 in Calm     94% 0.00 in 0 W/m2
05:42 63.6 °F 61.8 °F 29.74 in Calm     94% 0.00 in 0 W/m2
05:48 63.5 °F 61.7 °F 29.74 in Calm     94% 0.00 in 0 W/m2
05:54 63.7 °F 61.9 °F 29.74 in Calm     94% 0.00 in 0 W/m2
06:00 63.9 °F 62.1 °F 29.74 in Calm     94% 0.00 in 0 W/m2
06:06 64.0 °F 62.2 °F 29.74 in Calm   2.0 mph 94% 0.00 in 7 W/m2
06:12 64.0 °F 62.2 °F 29.74 in Calm     94% 0.00 in 11 W/m2
06:18 64.1 °F 62.3 °F 29.74 in Calm   3.0 mph 94% 0.00 in 12 W/m2
06:24 64.0 °F 62.2 °F 29.74 in Calm   2.0 mph 94% 0.00 in 16 W/m2
06:30 64.1 °F 62.3 °F 29.74 in Calm     94% 0.00 in 21 W/m2
06:36 64.0 °F 62.2 °F 29.74 in Calm   1.0 mph 94% 0.00 in 28 W/m2
06:42 64.1 °F 62.3 °F 29.74 in Calm   1.0 mph 94% 0.00 in 40 W/m2
06:48 64.2 °F 62.4 °F 29.74 in Calm   1.0 mph 94% 0.00 in 51 W/m2
06:54 64.2 °F 62.4 °F 29.74 in Calm   2.0 mph 94% 0.00 in 39 W/m2
07:00 64.3 °F 62.5 °F 29.74 in Calm     94% 0.00 in 79 W/m2
07:06 64.7 °F 62.9 °F 29.74 in Calm   1.0 mph 94% 0.00 in 114 W/m2
07:12 65.1 °F 63.3 °F 29.74 in Calm     94% 0.00 in 190 W/m2
07:18 65.8 °F 64.0 °F 29.74 in Calm   1.0 mph 94% 0.00 in 134 W/m2
07:24 65.8 °F 64.0 °F 29.75 in SSE 1.0 mph 3.0 mph 94% 0.00 in 76 W/m2
07:30 65.9 °F 64.1 °F 29.75 in SSE 1.0 mph 1.0 mph 94% 0.00 in 79 W/m2
07:36 66.0 °F 63.9 °F 29.75 in SE 1.0 mph 3.0 mph 93% 0.00 in 84 W/m2
07:42 66.2 °F 63.8 °F 29.75 in SE 1.0 mph 1.0 mph 92% 0.00 in 156 W/m2
07:48 66.9 °F 64.5 °F 29.75 in East 1.0 mph 2.0 mph 92% 0.00 in 169 W/m2
07:54 67.3 °F 64.6 °F 29.76 in SSE 1.0 mph 2.0 mph 91% 0.00 in 116 W/m2
08:00 67.4 °F 63.7 °F 29.76 in SE 1.0 mph 1.0 mph 88% 0.00 in 86 W/m2
08:06 67.5 °F 63.5 °F 29.76 in SE 1.0 mph 2.0 mph 87% 0.00 in 88 W/m2
08:12 67.5 °F 63.2 °F 29.76 in ESE 1.0 mph 1.0 mph 86% 0.00 in 97 W/m2
08:18 67.6 °F 63.3 °F 29.77 in Calm   2.0 mph 86% 0.00 in 102 W/m2
08:24 67.7 °F 63.0 °F 29.77 in ESE 1.0 mph 2.0 mph 85% 0.00 in 97 W/m2
08:30 67.7 °F 63.0 °F 29.77 in SSE 1.0 mph 1.0 mph 85% 0.00 in 111 W/m2
08:36 67.7 °F 62.7 °F 29.76 in East 1.0 mph 1.0 mph 84% 0.00 in 142 W/m2
08:42 67.9 °F 63.2 °F 29.76 in East 1.0 mph 1.0 mph 85% 0.00 in 171 W/m2
08:48 68.2 °F 63.2 °F 29.76 in Calm   2.0 mph 84% 0.00 in 163 W/m2
08:54 68.4 °F 63.0 °F 29.76 in East 1.0 mph 2.0 mph 83% 0.00 in 163 W/m2
09:00 68.7 °F 63.3 °F 29.76 in ENE 1.0 mph 1.0 mph 83% 0.00 in 267 W/m2
09:06 69.3 °F 63.6 °F 29.76 in ENE 1.0 mph 2.0 mph 82% 0.00 in 285 W/m2
09:12 69.9 °F 63.4 °F 29.76 in East 1.0 mph 5.0 mph 80% 0.00 in 190 W/m2
09:18 69.8 °F 63.3 °F 29.76 in NE 2.0 mph 5.0 mph 80% 0.00 in 169 W/m2
09:24 69.9 °F 63.4 °F 29.75 in ENE 2.0 mph 4.0 mph 80% 0.00 in 193 W/m2
09:30 70.0 °F 63.2 °F 29.76 in ENE 1.0 mph 1.0 mph 79% 0.00 in 190 W/m2
09:36 70.1 °F 62.9 °F 29.76 in ENE 1.0 mph 3.0 mph 78% 0.00 in 185 W/m2
09:42 70.3 °F 63.5 °F 29.76 in ENE 1.0 mph 1.0 mph 79% 0.00 in 183 W/m2
09:48 70.3 °F 63.5 °F 29.76 in ENE 2.0 mph 4.0 mph 79% 0.00 in 216 W/m2
09:54 70.5 °F 63.7 °F 29.76 in ENE 1.0 mph 3.0 mph 79% 0.00 in 199 W/m2
10:00 70.7 °F 63.5 °F 29.76 in ENE 1.0 mph 3.0 mph 78% 0.00 in 171 W/m2
10:06 70.8 °F 63.6 °F 29.76 in ENE 1.0 mph 3.0 mph 78% 0.00 in 200 W/m2
10:12 70.9 °F 63.7 °F 29.76 in ENE 1.0 mph 3.0 mph 78% 0.00 in 221 W/m2
10:18 71.1 °F 63.9 °F 29.76 in ENE 1.0 mph 3.0 mph 78% 0.00 in 206 W/m2
10:24 71.3 °F 64.4 °F 29.76 in Calm   1.0 mph 79% 0.00 in 206 W/m2
10:30 71.5 °F 65.0 °F 29.76 in Calm   2.0 mph 80% 0.00 in 227 W/m2
10:36 71.3 °F 64.1 °F 29.76 in ENE 2.0 mph 4.0 mph 78% 0.00 in 257 W/m2
10:40 71.4 °F 64.2 °F 29.76 in ENE 2.0 mph 2.0 mph 78% 0.00 in 253 W/m2
10:46 71.4 °F 63.8 °F 29.76 in NE 1.0 mph 2.0 mph 77% 0.00 in 213 W/m2
10:52 71.4 °F 64.2 °F 29.77 in ENE 2.0 mph 2.0 mph 78% 0.00 in 244 W/m2
10:58 71.4 °F 64.2 °F 29.76 in SE 1.0 mph 4.0 mph 78% 0.00 in 227 W/m2
11:04 71.4 °F 64.2 °F 29.76 in NE 1.0 mph 1.0 mph 78% 0.00 in 234 W/m2
11:10 71.5 °F 64.3 °F 29.76 in ENE 1.0 mph 2.0 mph 78% 0.00 in 279 W/m2
11:16 71.5 °F 63.9 °F 29.76 in ESE 2.0 mph 4.0 mph 77% 0.00 in 288 W/m2
11:22 71.7 °F 64.1 °F 29.76 in SE 2.0 mph 2.0 mph 77% 0.00 in 278 W/m2
11:28 72.1 °F 64.9 °F 29.76 in ENE 2.0 mph 4.0 mph 78% 0.00 in 271 W/m2
11:34 72.2 °F 65.0 °F 29.75 in ESE 2.0 mph 3.0 mph 78% 0.00 in 244 W/m2
11:40 72.3 °F 64.7 °F 29.75 in ESE 1.0 mph 1.0 mph 77% 0.00 in 394 W/m2
11:46 73.4 °F 66.1 °F 29.75 in SSE 1.0 mph 3.0 mph 78% 0.00 in 970 W/m2
11:52 73.7 °F 65.7 °F 29.75 in NE 2.0 mph 5.0 mph 76% 0.00 in 527 W/m2
11:58 73.9 °F 65.1 °F 29.75 in NE 3.0 mph 5.0 mph 74% 0.00 in 459 W/m2
12:04 74.4 °F 66.0 °F 29.75 in SE 3.0 mph 6.0 mph 75% 0.00 in 589 W/m2
12:10 75.4 °F 66.1 °F 29.75 in NE 3.0 mph 3.0 mph 73% 0.00 in 508 W/m2
12:16 74.9 °F 64.9 °F 29.75 in East 3.0 mph 5.0 mph 71% 0.00 in 527 W/m2
12:22 75.1 °F 64.2 °F 29.75 in ENE 3.0 mph 3.0 mph 69% 0.00 in 501 W/m2
12:28 75.0 °F 65.0 °F 29.75 in SE 3.0 mph 4.0 mph 71% 0.00 in 427 W/m2
12:34 74.9 °F 66.1 °F 29.75 in ENE 3.0 mph 3.0 mph 74% 0.00 in 396 W/m2
12:40 75.1 °F 65.5 °F 29.75 in SE 2.0 mph 2.0 mph 72% 0.00 in 432 W/m2
12:46 75.2 °F 65.6 °F 29.75 in South 2.0 mph 2.0 mph 72% 0.00 in 338 W/m2
12:52 75.1 °F 64.2 °F 29.75 in SSE 1.0 mph 3.0 mph 69% 0.00 in 417 W/m2
12:58 75.0 °F 64.5 °F 29.75 in SE 1.0 mph 6.0 mph 70% 0.00 in 343 W/m2
13:04 75.0 °F 64.1 °F 29.76 in ENE 2.0 mph 2.0 mph 69% 0.00 in 295 W/m2
13:10 75.1 °F 64.6 °F 29.76 in SSE 2.0 mph 2.0 mph 70% 0.00 in 193 W/m2
13:16 74.8 °F 64.4 °F 29.76 in SE 2.0 mph 5.0 mph 70% 0.00 in 160 W/m2
13:22 74.6 °F 65.4 °F 29.75 in SE 1.0 mph 1.0 mph 73% 0.00 in 141 W/m2
13:28 74.3 °F 64.3 °F 29.76 in SSE 1.0 mph 4.0 mph 71% 0.00 in 114 W/m2
13:36 74.1 °F 64.9 °F 29.76 in SSE 1.0 mph 2.0 mph 73% 0.00 in 98 W/m2
13:42 74.0 °F 64.8 °F 29.76 in Calm   2.0 mph 73% 0.00 in 107 W/m2
13:48 73.9 °F 65.1 °F 29.75 in Calm   2.0 mph 74% 0.00 in 141 W/m2
13:54 74.0 °F 65.6 °F 29.75 in Calm   1.0 mph 75% 0.00 in 169 W/m2
14:00 74.1 °F 65.7 °F 29.75 in Calm   2.0 mph 75% 0.00 in 183 W/m2
14:06 74.2 °F 65.4 °F 29.75 in East 1.0 mph 2.0 mph 74% 0.00 in 209 W/m2
14:12 74.4 °F 65.2 °F 29.75 in Calm   1.0 mph 73% 0.00 in 167 W/m2
14:18 74.3 °F 64.7 °F 29.75 in NE 1.0 mph 3.0 mph 72% 0.00 in 153 W/m2
14:24 74.2 °F 65.0 °F 29.75 in NE 2.0 mph 2.0 mph 73% 0.00 in 121 W/m2
14:30 74.1 °F 64.9 °F 29.75 in ENE 1.0 mph 2.0 mph 73% 0.00 in 132 W/m2
14:36 74.0 °F 65.2 °F 29.75 in NE 1.0 mph 2.0 mph 74% 0.00 in 116 W/m2
14:42 73.8 °F 65.0 °F 29.75 in ENE 2.0 mph 2.0 mph 74% 0.00 in 104 W/m2
14:48 73.7 °F 64.9 °F 29.75 in ENE 2.0 mph 3.0 mph 74% 0.00 in 109 W/m2
14:54 73.6 °F 65.6 °F 29.75 in ENE 1.0 mph 2.0 mph 76% 0.00 in 116 W/m2
15:00 73.5 °F 65.5 °F 29.74 in East 1.0 mph 1.0 mph 76% 0.00 in 113 W/m2
15:06 73.6 °F 65.6 °F 29.74 in East 1.0 mph 1.0 mph 76% 0.00 in 120 W/m2
15:12 73.5 °F 65.5 °F 29.74 in NE 2.0 mph 3.0 mph 76% 0.00 in 162 W/m2
15:18 73.7 °F 65.7 °F 29.74 in ENE 2.0 mph 3.0 mph 76% 0.00 in 253 W/m2
15:24 74.2 °F 66.5 °F 29.73 in East 2.0 mph 2.0 mph 77% 0.00 in 295 W/m2
15:30 74.7 °F 66.2 °F 29.73 in ENE 2.0 mph 3.0 mph 75% 0.00 in 216 W/m2
15:36 74.6 °F 65.8 °F 29.73 in ENE 2.0 mph 3.0 mph 74% 0.00 in 181 W/m2
15:42 74.6 °F 65.8 °F 29.73 in East 2.0 mph 3.0 mph 74% 0.00 in 251 W/m2
15:48 74.6 °F 66.1 °F 29.73 in NE 2.0 mph 3.0 mph 75% 0.00 in 220 W/m2
15:54 74.8 °F 66.3 °F 29.72 in ENE 2.0 mph 5.0 mph 75% 0.00 in 274 W/m2
16:00 75.0 °F 66.1 °F 29.72 in ENE 2.0 mph 7.0 mph 74% 0.00 in 274 W/m2
16:06 74.9 °F 65.7 °F 29.72 in East 3.0 mph 7.0 mph 73% 0.00 in 148 W/m2
16:12 74.8 °F 66.0 °F 29.71 in ENE 3.0 mph 3.0 mph 74% 0.00 in 156 W/m2
16:18 74.4 °F 65.6 °F 29.71 in ENE 3.0 mph 6.0 mph 74% 0.00 in 257 W/m2
16:24 74.4 °F 66.0 °F 29.71 in NE 3.0 mph 7.0 mph 75% 0.00 in 225 W/m2
16:30 74.5 °F 66.1 °F 29.71 in NE 2.0 mph 3.0 mph 75% 0.00 in 163 W/m2
16:36 74.2 °F 65.0 °F 29.71 in ENE 3.0 mph 3.0 mph 73% 0.00 in 218 W/m2
16:42 74.3 °F 65.5 °F 29.71 in SE 3.0 mph 6.0 mph 74% 0.00 in 255 W/m2
16:48 74.5 °F 65.3 °F 29.71 in ENE 3.0 mph 6.0 mph 73% 0.00 in 174 W/m2
16:54 74.4 °F 65.6 °F 29.71 in East 3.0 mph 5.0 mph 74% 0.00 in 230 W/m2
17:00 74.5 °F 65.3 °F 29.72 in ENE 2.0 mph 4.0 mph 73% 0.00 in 248 W/m2
17:06 74.6 °F 65.4 °F 29.72 in NE 3.0 mph 4.0 mph 73% 0.00 in 253 W/m2
17:12 74.8 °F 66.0 °F 29.72 in SSE 3.0 mph 3.0 mph 74% 0.00 in 186 W/m2
17:18 74.8 °F 65.6 °F 29.71 in East 2.0 mph 2.0 mph 73% 0.00 in 142 W/m2
17:24 74.7 °F 65.9 °F 29.71 in ESE 1.0 mph 2.0 mph 74% 0.00 in 120 W/m2
17:30 74.6 °F 66.1 °F 29.71 in ENE 1.0 mph 2.0 mph 75% 0.00 in 114 W/m2
17:36 74.4 °F 65.6 °F 29.71 in NNE 3.0 mph 3.0 mph 74% 0.00 in 116 W/m2
17:42 74.4 °F 65.6 °F 29.71 in ENE 3.0 mph 3.0 mph 74% 0.00 in 134 W/m2
17:48 74.4 °F 65.6 °F 29.71 in East 2.0 mph 2.0 mph 74% 0.00 in 111 W/m2
17:56 74.3 °F 65.5 °F 29.71 in SSE 2.0 mph 2.0 mph 74% 0.00 in 93 W/m2
18:02 74.2 °F 65.4 °F 29.71 in East 1.0 mph 3.0 mph 74% 0.00 in 83 W/m2
18:08 74.0 °F 65.2 °F 29.71 in NNE 2.0 mph 8.0 mph 74% 0.00 in 70 W/m2
18:14 73.9 °F 65.1 °F 29.71 in ESE 2.0 mph 2.0 mph 74% 0.00 in 65 W/m2
18:20 73.8 °F 65.4 °F 29.71 in ENE 1.0 mph 5.0 mph 75% 0.00 in 83 W/m2
18:26 73.8 °F 65.0 °F 29.71 in ENE 1.0 mph 5.0 mph 74% 0.00 in 88 W/m2
18:32 73.9 °F 65.5 °F 29.71 in NE 2.0 mph 2.0 mph 75% 0.00 in 84 W/m2
18:38 73.9 °F 65.5 °F 29.71 in ENE 2.0 mph 3.0 mph 75% 0.00 in 90 W/m2
18:44 73.8 °F 65.4 °F 29.71 in ENE 1.0 mph 2.0 mph 75% 0.00 in 91 W/m2
18:50 73.8 °F 65.4 °F 29.71 in ENE 2.0 mph 2.0 mph 75% 0.00 in 63 W/m2
18:56 73.7 °F 65.7 °F 29.70 in SE 2.0 mph 3.0 mph 76% 0.00 in 67 W/m2
19:02 73.7 °F 65.7 °F 29.70 in SW 2.0 mph 4.0 mph 76% 0.00 in 56 W/m2
19:06 73.6 °F 65.6 °F 29.71 in West 1.0 mph 4.0 mph 76% 0.00 in 47 W/m2
19:12 73.6 °F 65.6 °F 29.71 in NE 2.0 mph 3.0 mph 76% 0.00 in 33 W/m2
19:18 73.6 °F 65.6 °F 29.71 in ENE 2.0 mph 3.0 mph 76% 0.00 in 21 W/m2
19:24 73.5 °F 65.5 °F 29.71 in East 2.0 mph 3.0 mph 76% 0.00 in 21 W/m2
19:30 73.4 °F 65.4 °F 29.71 in NE 2.0 mph 4.0 mph 76% 0.00 in 19 W/m2
19:36 73.4 °F 65.4 °F 29.71 in NE 2.0 mph 8.0 mph 76% 0.00 in 21 W/m2
19:42 73.3 °F 65.3 °F 29.71 in ENE 2.0 mph 2.0 mph 76% 0.00 in 18 W/m2
19:48 73.2 °F 65.2 °F 29.70 in East 2.0 mph 4.0 mph 76% 0.00 in 18 W/m2
19:54 73.2 °F 65.2 °F 29.70 in East 1.0 mph 4.0 mph 76% 0.00 in 19 W/m2
20:00 73.1 °F 65.1 °F 29.70 in ENE 1.0 mph 1.0 mph 76% 0.00 in 18 W/m2
20:06 72.9 °F 65.3 °F 29.70 in ENE 1.0 mph 4.0 mph 77% 0.00 in 14 W/m2
20:14 72.8 °F 65.2 °F 29.70 in East 1.0 mph 2.0 mph 77% 0.00 in 14 W/m2
20:20 72.7 °F 65.1 °F 29.70 in ESE 1.0 mph 1.0 mph 77% 0.00 in 11 W/m2
20:26 72.6 °F 65.0 °F 29.70 in ENE 1.0 mph 1.0 mph 77% 0.00 in 7 W/m2
20:32 72.4 °F 64.8 °F 29.69 in ENE 1.0 mph 1.0 mph 77% 0.00 in 5 W/m2
20:38 72.3 °F 65.1 °F 29.69 in ENE 1.0 mph 3.0 mph 78% 0.00 in 0 W/m2
20:44 72.2 °F 65.0 °F 29.69 in ENE 1.0 mph 3.0 mph 78% 0.00 in 0 W/m2
20:50 72.1 °F 64.9 °F 29.69 in East 1.0 mph 1.0 mph 78% 0.00 in 0 W/m2
20:56 72.1 °F 64.9 °F 29.69 in ENE 2.0 mph 2.0 mph 78% 0.00 in 0 W/m2
21:02 71.9 °F 64.7 °F 29.70 in SSE 1.0 mph 1.0 mph 78% 0.00 in 0 W/m2
21:08 71.8 °F 64.9 °F 29.70 in ENE 1.0 mph 2.0 mph 79% 0.00 in 0 W/m2
21:14 71.7 °F 64.8 °F 29.70 in SE 1.0 mph 1.0 mph 79% 0.00 in 0 W/m2
21:20 71.7 °F 64.8 °F 29.70 in ESE 1.0 mph 1.0 mph 79% 0.00 in 0 W/m2
21:26 71.6 °F 64.7 °F 29.71 in East 1.0 mph 3.0 mph 79% 0.00 in 0 W/m2
21:32 71.6 °F 64.7 °F 29.71 in SSE 1.0 mph 1.0 mph 79% 0.00 in 0 W/m2
21:38 71.5 °F 64.6 °F 29.71 in ENE 1.0 mph 5.0 mph 79% 0.00 in 0 W/m2
21:44 71.7 °F 64.8 °F 29.72 in NE 2.0 mph 3.0 mph 79% 0.00 in 0 W/m2
21:50 71.6 °F 64.7 °F 29.72 in ENE 2.0 mph 2.0 mph 79% 0.00 in 0 W/m2
21:56 71.6 °F 64.7 °F 29.72 in ENE 2.0 mph 2.0 mph 79% 0.00 in 0 W/m2
22:02 71.6 °F 64.7 °F 29.72 in East 2.0 mph 2.0 mph 79% 0.00 in 0 W/m2
22:08 71.6 °F 64.7 °F 29.72 in East 1.0 mph 2.0 mph 79% 0.00 in 0 W/m2
22:14 71.7 °F 64.8 °F 29.72 in ENE 1.0 mph 8.0 mph 79% 0.00 in 0 W/m2
22:20 71.7 °F 64.8 °F 29.72 in NNE 1.0 mph 1.0 mph 79% 0.00 in 0 W/m2
22:26 71.7 °F 64.8 °F 29.72 in ESE 1.0 mph 2.0 mph 79% 0.00 in 0 W/m2
22:32 71.6 °F 65.1 °F 29.72 in East 1.0 mph 5.0 mph 80% 0.00 in 0 W/m2
22:38 71.6 °F 64.7 °F 29.72 in ENE 2.0 mph 5.0 mph 79% 0.00 in 0 W/m2
22:44 71.6 °F 64.7 °F 29.72 in NE 2.0 mph 4.0 mph 79% 0.00 in 0 W/m2
22:50 71.5 °F 64.6 °F 29.72 in ENE 2.0 mph 2.0 mph 79% 0.00 in 0 W/m2
22:56 71.4 °F 64.9 °F 29.72 in SSE 2.0 mph 4.0 mph 80% 0.00 in 0 W/m2
23:02 71.3 °F 64.8 °F 29.71 in ENE 2.0 mph 2.0 mph 80% 0.00 in 0 W/m2
23:08 71.3 °F 64.8 °F 29.71 in East 2.0 mph 2.0 mph 80% 0.00 in 0 W/m2
23:14 71.2 °F 64.7 °F 29.71 in NE 1.0 mph 2.0 mph 80% 0.00 in 0 W/m2
23:20 71.1 °F 64.6 °F 29.71 in SE 1.0 mph 1.0 mph 80% 0.00 in 0 W/m2
23:26 71.0 °F 64.5 °F 29.71 in ENE 1.0 mph 2.0 mph 80% 0.00 in 0 W/m2
23:32 70.9 °F 64.8 °F 29.70 in ENE 1.0 mph 3.0 mph 81% 0.00 in 0 W/m2
23:38 70.9 °F 64.8 °F 29.70 in East 1.0 mph 3.0 mph 81% 0.00 in 0 W/m2
23:44 70.8 °F 64.7 °F 29.70 in ENE 1.0 mph 3.0 mph 81% 0.00 in 0 W/m2
23:50 70.8 °F 64.7 °F 29.70 in ESE 1.0 mph 2.0 mph 81% 0.00 in 0 W/m2
23:56 70.8 °F 64.7 °F 29.69 in ENE 1.0 mph 2.0 mph 81% 0.00 in 0 W/m2
Country Meadow, Clay, NY, USA
Compliments of Weather Underground - 2 mb